Hydaburg, Alaska
Current Conditions -  °F | °C
As of 9:36 AM on Thursday 23 Oct 2014 (Local Time) from PAHY Reporting Station
Overcast Overcast  
Wind Chill: 48°   Ceiling: 5000
Heat Index: 48°   Visibility: 10mi
Dew Point: 37°   Wind: 3mph
Humidity: 66%   Direction: 30°NNE
Pressure: 29.54"   Gusts: NA
Location:  55.21°N, 132.82°W
Report Text: PAHY 231736Z AUTO 03003KT 10SM FEW020 OVC050 09/03 A2954 RMK AO1
Loading
Personal Weather Stations






























Interactive Weather Map
Tropical Storm Tracking
New forecast layout! Learn more

10-Day Weather Forecast

Advertisements
Track Severe Weather on mobile